Barbourville, New York
Current Conditions -  °F | °C
As of 8:53 AM on Sunday 23 Nov 2014 (Local Time) from KBGM Reporting Station
Overcast Overcast  
Wind Chill: 39°   Ceiling: 4200
Heat Index: 44°   Visibility: 10mi
Dew Point: 28°   Wind: 9mph
Humidity: 53%   Direction: 210°SSW
Pressure: 30.1"   Gusts: NA
Location:  42.0783°N, 75.4419°W
Report Text: KBGM 231353Z 21008KT 10SM OVC042 07/M02 A3010 RMK AO2 SLP203 T00671022
Loading
Personal Weather Stations






























Interactive Weather Map New forecast layout! Learn more

10-Day Weather Forecast

Advertisements
Track Severe Weather on mobile